• Join FlightAware (Why Join?)
  • Login
  • US Flag 
Rudolph Flight #1: Arrived! 
05:19PM EST


 

Airport Tracker/Info


-or-


 

Live Flight TrackerFlight Track Log ✈ LOF3357 ✈ 12-Jul-2013 ✈ KIAD - KSTL

Flight Track Log - Related Links

Times and Time Zones

All times are in EDT time to prevent confusion due to time zone crossing. See the LOF3357 flight status page for this flight to view local times or setup timezone preferences in your user account.

Time Position Orientation Groundspeed Altitude Reporting Facility
EDT Latitude Longitude Course Direction KTS MPH feet Rate Location/Type
01:21PM 38.9333 -77.5667 251° West 227 261 3,100  Level Potomac TRACON
01:22PM 38.8992 -77.6933 251° West 245 282 6,200 2,040 Climbing Washington Center
01:24PM 38.8869 -77.7944 261° West 277 319 8,200 1,920 Climbing Washington Center
01:25PM 38.8808 -77.9011 266° West 295 339 10,200 1,800 Climbing Washington Center
01:25PM 38.9078 -78.0086 288° West 295 339 11,800 1,440 Climbing Washington Center
01:27PM 38.9367 -78.1242 288° West 316 364 13,100 1,140 Climbing Washington Center
01:28PM 38.9633 -78.2481 286° West 346 398 14,200 1,200 Climbing Washington Center
01:29PM 38.9664 -78.3817 272° West 361 415 15,600 1,260 Climbing Washington Center
01:29PM 38.9697 -78.5125 272° West 372 428 16,800 1,080 Climbing Washington Center
01:31PM 38.9725 -78.6461 272° West 372 428 17,800 960 Climbing Washington Center
01:32PM 38.9753 -78.7825 272° West 377 434 18,800 1,080 Climbing Washington Center
01:33PM 38.9800 -78.9189 273° West 383 441 20,000 1,020 Climbing Washington Center
01:34PM 38.9886 -79.0608 275° West 388 447 20,900 960 Climbing Washington Center
01:34PM 39.0011 -79.2003 277° West 393 452 21,900 900 Climbing Washington Center
01:36PM 39.0133 -79.3453 276° West 398 458 22,800 840 Climbing Washington Center
01:37PM 39.0231 -79.4928 275° West 409 471 23,700 840 Climbing Washington Center
01:38PM 39.0369 -79.6458 277° West 414 476 24,500 720 Climbing Washington Center
01:39PM 39.0469 -79.7747 276° West 425 489 25,200 660 Climbing Washington Center
01:39PM 39.0564 -79.9194 275° West 420 483 25,900 720 Climbing Washington Center
01:41PM 39.0642 -80.0925 273° West 418 481 26,800 660 Climbing Indianapolis Center
01:42PM 39.0747 -80.2422 275° West 421 484 27,400 960 Climbing Indianapolis Center
01:43PM 39.0800 -80.4181 272° West 408 470 28,800 1,260 Climbing Indianapolis Center
01:44PM 39.0717 -80.5553 266° West 389 448 30,000 960 Climbing Indianapolis Center
01:45PM 39.0647 -80.6931 266° West 387 445 30,900 480 Climbing Indianapolis Center
01:46PM 39.0589 -80.8347 267° West 395 455 31,000 240 Climbing Indianapolis Center
01:47PM 39.0494 -80.9808 265° West 410 472 31,500 660 Climbing Indianapolis Center
01:48PM 39.0531 -81.1275 272° West 420 483 32,400 960 Climbing Indianapolis Center
01:49PM 39.0844 -81.3011 283° West 419 482 33,600 960 Climbing Indianapolis Center
01:50PM 39.1086 -81.4461 282° West 419 482 34,500 780 Climbing Indianapolis Center
01:51PM 39.1325 -81.5900 282° West 416 479 35,200 720 Climbing Indianapolis Center
01:52PM 39.1564 -81.7353 282° West 417 480 36,000 360 Climbing Indianapolis Center
01:53PM 39.1803 -81.8831 282° West 424 488 36,000  Level Indianapolis Center
01:54PM 39.2053 -82.0331 282° West 430 495 36,000  Level Indianapolis Center
01:55PM 39.2336 -82.2172 281° West 435 501 36,000  Level Indianapolis Center
01:56PM 39.2575 -82.3697 281° West 434 499 36,000  Level Indianapolis Center
01:57PM 39.2803 -82.5214 281° West 436 502 36,000  Level Indianapolis Center
01:58PM 39.3056 -82.6767 282° West 437 503 36,000  Level Indianapolis Center
01:59PM 39.3289 -82.8342 281° West 441 507 36,000  Level Indianapolis Center
02:00PM 39.3531 -82.9892 281° West 438 504 36,000  Level Indianapolis Center
02:01PM 39.3769 -83.1447 281° West 437 503 36,000  Level Indianapolis Center
02:02PM 39.4036 -83.3278 281° West 438 504 36,000  Level Indianapolis Center
02:03PM 39.4247 -83.4850 280° West 437 503 36,000  Level Indianapolis Center
02:04PM 39.4281 -83.6461 272° West 441 507 36,000  Level Indianapolis Center
02:05PM 39.4297 -83.8081 271° West 444 511 36,000  Level Indianapolis Center
02:06PM 39.4300 -83.9697 270° West 445 512 36,000  Level Indianapolis Center
02:08PM 39.4317 -84.1319 271° West 446 513 36,000  Level Indianapolis Center
02:09PM 39.4325 -84.2933 270° West 445 512 36,000  Level Indianapolis Center
02:10PM 39.4336 -84.4567 271° West 448 516 36,000  Level Indianapolis Center
02:11PM 39.4339 -84.6181 270° West 445 512 36,000  Level Indianapolis Center
02:12PM 39.4344 -84.7808 270° West 449 517 36,000  Level Indianapolis Center
02:13PM 39.4344 -84.9400 270° West 450 518 36,000  Level Indianapolis Center
02:14PM 39.4333 -85.1367 270° West 456 525 36,000  Level Indianapolis Center
02:15PM 39.4333 -85.3017 270° West 459 528 36,000  Level Indianapolis Center
02:16PM 39.4331 -85.4661 270° West 461 531 36,000  Level Indianapolis Center
02:17PM 39.4311 -85.6289 269° West 454 522 36,000  Level Indianapolis Center
02:18PM 39.4297 -85.7872 269° West 442 509 36,000  Level Indianapolis Center
02:19PM 39.4289 -85.9458 270° West 439 505 36,000  Level Indianapolis Center
02:20PM 39.4264 -86.1047 269° West 440 506 36,000  Level Indianapolis Center
02:21PM 39.4247 -86.3003 269° West 449 517 36,000  Level Indianapolis Center
02:22PM 39.4231 -86.4658 269° West 455 524 36,000 -480 Level Indianapolis Center
02:23PM 39.4214 -86.6297 269° West 455 524 35,100 -1,020 Descending Indianapolis Center
02:24PM 39.4186 -86.7872 269° West 441 507 34,000 -540 Descending Indianapolis Center
02:25PM 39.4156 -86.9414 269° West 431 496 34,000  Level Indianapolis Center
02:26PM 39.4131 -87.1003 269° West 440 506 34,000  Level Indianapolis Center
02:27PM 39.4097 -87.2650 269° West 456 525 34,000  Level Indianapolis Center
02:28PM 39.4050 -87.4586 268° West 451 519 34,000  Level Indianapolis Center
02:29PM 39.4019 -87.6192 269° West 448 516 34,000 -360 Level Indianapolis Center
02:30PM 39.3969 -87.7775 268° West 445 512 33,300 -1,320 Descending Indianapolis Center
02:31PM 39.3922 -87.9406 268° West 452 520 31,300 -2,040 Descending Indianapolis Center
02:32PM 39.3767 -88.1061 263° West 465 535 29,100 -1,980 Descending Indianapolis Center
02:33PM 39.3303 -88.2783 251° West 481 554 27,300 -1,560 Descending Indianapolis Center
02:34PM 39.3031 -88.3781 251° West 481 554 26,700 -1,140 Descending Kansas City Center
02:35PM 39.2603 -88.5350 251° West 469 540 25,600 -1,140 Descending Kansas City Center
02:36PM 39.2139 -88.7086 251° West 459 528 24,400 -960 Descending Kansas City Center
02:37PM 39.1728 -88.8625 251° West 456 525 23,700 -660 Descending Kansas City Center
02:38PM 39.1286 -89.0311 251° West 454 522 23,100 -1,020 Descending Kansas City Center
02:39PM 39.0878 -89.1842 251° West 454 522 21,700 -1,920 Descending Kansas City Center
02:40PM 39.0558 -89.3297 254° West 426 490 19,200 -2,520 Descending Kansas City Center
02:41PM 39.0231 -89.4756 254° West 399 459 16,500 -2,040 Descending Kansas City Center
02:42PM 38.9939 -89.6011 253° West 374 430 15,000 -1,500 Descending Kansas City Center
02:43PM 38.9547 -89.7275 248° West 359 413 13,400 -1,740 Descending Kansas City Center
02:44PM 38.9194 -89.8403 248° West 344 396 11,500 -1,500 Descending Kansas City Center
02:45PM 38.8878 -89.9358 247° West 318 366 10,400 -1,080 Descending Kansas City Center
02:46PM 38.8592 -90.0258 248° West 281 323 9,300 -1,020 Descending Kansas City Center
02:47PM 38.8314 -90.1153 248° West 273 314 8,300 -660 Descending Kansas City Center
02:48PM 38.8033 -90.2317 253° West 290 334 8,000 -600 Descending Kansas City Center
02:49PM 38.8333 -90.3161 295° West 270 311 7,100 -1,020 Descending Kansas City Center
02:50PM 38.8628 -90.4028 294° West 269 310 6,000 -1,440 Descending Kansas City Center
02:51PM 38.8797 -90.4928 284° West 274 315 4,200 -1,560 Descending Kansas City Center
02:52PM 38.8136 -90.5325 205° Southwest 239 275 2,800 -1,140 Descending Kansas City Center
02:53PM 38.7942 -90.4811 116° Southeast 183 211 1,900 -780 Descending Kansas City Center
02:55PM 38.7747 -90.4392 121° Southeast 154 177 1,200 -660 Descending Kansas City Center
02:56PM 38.7517 -90.3922 122° Southeast 146 168 600 -600 Descending Kansas City Center